Time;durP1;ratioP1;P1;durP2;ratioP2;P2;SDS_P1;SDS_P2;PMS_P1;PMS_P2;Temp;Humidity;BMP_temperature;BMP_pressure;BME280_temperature;BME280_humidity;BME280_pressure;Samples;Min_cycle;Max_cycle;Signal;HPM_P1;HPM_P2
2021/05/06 00:03:08;;;;;;;6.03;1.17;;;12.60;54.00;;;;;;4436120;29;20102;-72
2021/05/06 00:08:12;;;;;;;3.60;0.77;;;;;;;;;;4422365;29;20077;-73
2021/05/06 00:31:31;;;;;;;3.42;1.05;;;16.30;54.80;;;;;;4440804;29;19974;-71
2021/05/06 00:33:47;;;;;;;2.53;1.02;;;11.00;52.40;;;;;;4440992;29;20088;-72
2021/05/06 00:36:03;;;;;;;1.52;1.08;;;13.40;53.50;;;;;;4441132;29;20081;-71
2021/05/06 00:38:21;;;;;;;1.77;0.90;;;15.00;52.40;;;;;;4441020;29;20058;-72
2021/05/06 00:40:49;;;;;;;3.67;0.88;;;15.70;54.30;;;;;;4439615;29;20459;-71
2021/05/06 00:43:40;;;;;;;3.47;0.85;;;14.00;51.80;;;;;;4441233;29;20050;-71
2021/05/06 00:46:20;;;;;;;1.90;0.80;;;;;;;;;;4439403;29;20064;-72
2021/05/06 00:59:23;;;;;;;1.48;0.85;;;15.00;53.00;;;;;;4440070;29;20081;-73
2021/05/06 01:02:11;;;;;;;2.60;0.93;;;14.80;52.40;;;;;;4439236;29;20058;-73
2021/05/06 01:04:38;;;;;;;1.25;0.85;;;;;;;;;;4439726;29;20081;-73
2021/05/06 01:07:08;;;;;;;0.93;0.80;;;14.90;50.60;;;;;;4439157;29;20050;-73
2021/05/06 01:09:28;;;;;;;2.58;0.85;;;;;;;;;;4439858;29;20081;-72
2021/05/06 01:11:48;;;;;;;1.90;0.77;;;;;;;;;;4440185;29;20500;-72
2021/05/06 01:14:07;;;;;;;5.13;1.05;;;13.60;49.20;;;;;;4441389;29;20089;-73
2021/05/06 01:16:23;;;;;;;1.30;0.90;;;;;;;;;;4438831;29;20259;-73
2021/05/06 01:18:38;;;;;;;1.95;0.70;;;13.40;52.00;;;;;;4439684;29;20069;-72
2021/05/06 01:20:58;;;;;;;2.50;0.75;;;;;;;;;;4439930;29;20049;-73
2021/05/06 01:23:17;;;;;;;2.65;1.80;;;;;;;;;;4436707;29;20057;-71
2021/05/06 01:25:32;;;;;;;1.02;0.80;;;15.70;50.50;;;;;;4440071;29;20553;-70
2021/05/06 01:27:56;;;;;;;2.33;1.17;;;16.60;50.80;;;;;;4440424;29;20070;-72
2021/05/06 01:30:26;;;;;;;0.60;0.47;;;14.60;49.90;;;;;;4439312;29;20073;-71
2021/05/06 01:32:45;;;;;;;2.88;0.90;;;;;;;;;;4438655;29;20521;-72
2021/05/06 01:35:05;;;;;;;3.80;0.82;;;14.40;49.70;;;;;;4441037;29;20478;-72
2021/05/06 01:37:25;;;;;;;2.55;0.77;;;15.90;50.60;;;;;;4439920;29;20053;-71
2021/05/06 01:42:16;;;;;;;2.55;1.00;;;11.80;50.40;;;;;;4387312;29;20074;-72
2021/05/06 01:44:54;;;;;;;2.10;0.90;;;12.90;51.50;;;;;;4439496;29;20066;-72
2021/05/06 01:47:17;;;;;;;2.55;0.85;;;14.00;50.00;;;;;;4437704;29;20506;-72
2021/05/06 01:57:35;;;;;;;3.38;1.08;;;15.60;52.70;;;;;;4439150;29;20083;-72
2021/05/06 02:00:16;;;;;;;1.33;0.98;;;16.90;53.10;;;;;;4438993;29;20454;-73
2021/05/06 02:02:37;;;;;;;1.65;0.90;;;14.20;52.80;;;;;;4439882;29;20065;-72
2021/05/06 02:04:52;;;;;;;2.25;1.95;;;13.30;51.20;;;;;;4438621;29;20080;-72
2021/05/06 02:07:13;;;;;;;2.45;1.15;;;14.20;52.40;;;;;;4438322;29;20448;-72
2021/05/06 02:09:38;;;;;;;2.25;1.08;;;14.50;50.50;;;;;;4437224;29;20085;-72
2021/05/06 02:11:55;;;;;;;1.92;1.17;;;13.70;49.90;;;;;;4437904;29;20136;-73
2021/05/06 02:14:27;;;;;;;1.08;0.82;;;14.80;50.60;;;;;;4438924;29;20054;-73
2021/05/06 02:16:43;;;;;;;1.67;0.70;;;12.30;51.20;;;;;;4437834;29;20061;-72
2021/05/06 02:19:03;;;;;;;2.55;1.10;;;14.10;51.20;;;;;;4439466;29;20142;-73
2021/05/06 02:21:20;;;;;;;3.47;1.10;;;13.10;50.30;;;;;;4439625;29;20148;-73
2021/05/06 02:23:45;;;;;;;1.20;1.10;;;15.30;50.60;;;;;;4437766;29;20054;-73
2021/05/06 02:26:01;;;;;;;3.72;1.50;;;13.60;48.40;;;;;;4439170;29;20045;-73
2021/05/06 02:28:18;;;;;;;1.83;0.90;;;13.60;48.50;;;;;;4438230;29;20062;-73
2021/05/06 02:30:33;;;;;;;2.55;1.20;;;12.10;49.70;;;;;;4438620;29;20062;-73
2021/05/06 02:32:49;;;;;;;1.92;1.20;;;14.00;50.40;;;;;;4439121;29;20067;-72
2021/05/06 02:35:06;;;;;;;1.58;0.85;;;17.70;52.50;;;;;;4439385;29;20128;-71
2021/05/06 02:37:22;;;;;;;3.22;1.00;;;15.80;52.40;;;;;;4439669;29;20121;-71
2021/05/06 02:39:39;;;;;;;1.73;0.90;;;14.10;49.90;;;;;;4439518;29;20050;-70
2021/05/06 02:41:55;;;;;;;3.72;1.30;;;14.50;51.00;;;;;;4439164;29;20069;-71
2021/05/06 02:44:11;;;;;;;1.38;1.08;;;13.90;49.40;;;;;;4438953;29;20102;-71
2021/05/06 02:46:27;;;;;;;2.97;1.40;;;14.80;50.30;;;;;;4438861;29;20064;-72
2021/05/06 02:48:43;;;;;;;2.00;1.15;;;12.10;49.40;;;;;;4439685;29;20075;-71
2021/05/06 02:51:01;;;;;;;2.35;1.25;;;14.90;51.40;;;;;;4436804;29;20053;-72
2021/05/06 02:53:22;;;;;;;1.10;1.00;;;12.40;49.50;;;;;;4438838;29;20073;-72
2021/05/06 02:55:42;;;;;;;1.55;1.20;;;15.30;51.10;;;;;;4439080;29;20513;-72
2021/05/06 02:58:01;;;;;;;1.48;0.85;;;14.60;52.60;;;;;;4439697;29;20081;-72
2021/05/06 03:02:55;;;;;;;2.00;1.15;;;;;;;;;;4439204;29;20451;-72
2021/05/06 03:05:12;;;;;;;3.47;1.70;;;14.20;50.80;;;;;;4438779;29;20081;-73
2021/05/06 03:07:30;;;;;;;4.07;1.17;;;13.70;49.90;;;;;;4439134;29;20080;-73
2021/05/06 03:09:57;;;;;;;4.72;0.95;;;12.40;48.80;;;;;;4438408;29;20054;-72
2021/05/06 03:12:24;;;;;;;2.75;1.25;;;13.90;50.40;;;;;;4438984;29;20093;-72
2021/05/06 03:14:53;;;;;;;2.55;1.00;;;14.10;50.00;;;;;;4439295;29;20418;-71
2021/05/06 03:24:55;;;;;;;1.42;1.25;;;16.30;51.20;;;;;;4438629;29;20467;-72
2021/05/06 03:27:14;;;;;;;1.48;1.10;;;13.30;48.00;;;;;;4439123;29;20053;-72
2021/05/06 03:29:35;;;;;;;3.13;1.05;;;13.80;48.80;;;;;;4438097;29;20133;-72
2021/05/06 03:34:43;;;;;;;3.25;0.80;;;14.10;47.90;;;;;;4435208;29;20066;-72
2021/05/06 03:42:06;;;;;;;2.73;1.30;;;12.60;47.60;;;;;;4437785;29;20547;-72
2021/05/06 04:18:00;;;;;;;0.90;0.80;;;13.20;47.40;;;;;;4417694;29;20070;-72
2021/05/06 04:25:37;;;;;;;2.92;0.80;;;14.90;50.70;;;;;;4440067;29;20118;-72
2021/05/06 04:28:00;;;;;;;0.75;0.55;;;14.70;49.60;;;;;;4441324;29;20073;-71
2021/05/06 04:30:35;;;;;;;2.25;0.80;;;15.00;50.80;;;;;;4423685;29;20050;-73
2021/05/06 04:37:57;;;;;;;1.95;1.05;;;12.60;47.20;;;;;;4439850;29;20171;-72
2021/05/06 04:40:19;;;;;;;3.22;1.10;;;13.70;48.30;;;;;;4440809;29;20470;-71
2021/05/06 04:43:07;;;;;;;1.52;0.65;;;14.40;48.50;;;;;;4441115;29;20049;-72
2021/05/06 04:53:28;;;;;;;2.55;1.20;;;15.10;47.80;;;;;;4441556;29;20069;-71
2021/05/06 04:55:42;;;;;;;2.25;0.77;;;14.80;47.10;;;;;;4440836;29;20050;-72
2021/05/06 05:03:32;;;;;;;1.65;0.90;;;13.60;46.40;;;;;;4439735;29;20053;-71
2021/05/06 05:05:47;;;;;;;2.47;1.17;;;13.60;46.40;;;;;;4438723;29;20141;-72
2021/05/06 05:08:08;;;;;;;3.30;0.98;;;;;;;;;;4441020;29;20058;-72
2021/05/06 05:10:35;;;;;;;4.63;1.10;;;13.00;46.60;;;;;;4438700;29;20053;-72
2021/05/06 05:13:26;;;;;;;5.90;1.10;;;15.70;47.40;;;;;;4440694;29;20417;-72
2021/05/06 05:18:36;;;;;;;2.08;0.93;;;13.50;47.10;;;;;;4438650;29;20053;-71
2021/05/06 05:21:14;;;;;;;3.70;1.05;;;13.70;47.60;;;;;;4440387;29;20073;-71
2021/05/06 05:23:36;;;;;;;3.10;1.20;;;13.30;46.60;;;;;;4438707;29;20473;-71
2021/05/06 05:26:00;;;;;;;4.18;1.80;;;15.60;48.10;;;;;;4439696;29;20126;-71
2021/05/06 05:28:15;;;;;;;1.92;1.02;;;14.40;48.40;;;;;;4438362;29;20057;-70
2021/05/06 05:30:34;;;;;;;1.48;1.10;;;14.60;47.00;;;;;;4439786;29;20042;-71
2021/05/06 05:32:51;;;;;;;2.72;1.95;;;13.30;46.70;;;;;;4440091;29;20081;-71
2021/05/06 05:35:10;;;;;;;2.47;1.00;;;13.40;46.50;;;;;;4437967;29;20070;-71
2021/05/06 05:37:29;;;;;;;3.33;1.30;;;14.00;47.90;;;;;;4439775;29;20102;-72
2021/05/06 05:39:55;;;;;;;3.55;1.15;;;;;;;;;;4439174;29;20061;-72
2021/05/06 05:42:19;;;;;;;3.70;0.90;;;13.70;45.30;;;;;;4439916;29;20057;-72
2021/05/06 05:54:47;;;;;;;1.55;0.85;;;14.80;46.90;;;;;;4438812;29;20057;-73
2021/05/06 05:57:06;;;;;;;3.55;0.90;;;15.30;47.70;;;;;;4437931;29;20049;-72
2021/05/06 05:59:23;;;;;;;1.05;0.90;;;13.70;45.00;;;;;;4436790;29;20416;-73
2021/05/06 06:01:39;;;;;;;1.23;1.10;;;;;;;;;;4436114;29;20551;-72
2021/05/06 06:03:55;;;;;;;2.17;0.80;;;;;;;;;;4438560;29;20065;-73
2021/05/06 06:06:11;;;;;;;1.23;0.93;;;;;;;;;;4437365;29;20459;-72
2021/05/06 06:08:29;;;;;;;4.18;1.08;;;14.70;45.90;;;;;;4439870;29;20421;-73
2021/05/06 06:10:47;;;;;;;3.70;1.00;;;14.20;45.80;;;;;;4438364;29;20045;-72
2021/05/06 06:13:04;;;;;;;2.13;1.13;;;14.60;44.90;;;;;;4437817;29;20050;-72
2021/05/06 06:15:30;;;;;;;2.00;0.80;;;16.10;46.40;;;;;;4439082;29;20054;-72
2021/05/06 06:17:47;;;;;;;2.15;1.08;;;16.30;46.40;;;;;;4440037;29;20526;-72
2021/05/06 06:20:04;;;;;;;4.43;1.23;;;16.00;47.10;;;;;;4437713;29;20180;-72
2021/05/06 06:22:21;;;;;;;3.03;1.00;;;;;;;;;;4438833;29;20442;-71
2021/05/06 06:24:37;;;;;;;3.92;1.00;;;;;;;;;;4438871;29;20526;-71
2021/05/06 06:26:53;;;;;;;1.63;0.68;;;15.40;45.90;;;;;;4438573;29;20125;-71
2021/05/06 06:29:10;;;;;;;1.58;0.98;;;16.30;46.50;;;;;;4438522;29;20145;-71
2021/05/06 06:31:29;;;;;;;3.13;1.02;;;15.10;45.00;;;;;;4438340;29;20057;-72
2021/05/06 06:33:44;;;;;;;1.70;0.82;;;13.30;45.10;;;;;;4438698;29;20050;-71
2021/05/06 06:36:01;;;;;;;2.95;0.93;;;15.40;45.10;;;;;;4438352;29;20435;-70
2021/05/06 06:38:16;;;;;;;4.20;1.00;;;15.70;45.10;;;;;;4438610;29;20085;-71
2021/05/06 06:40:32;;;;;;;4.95;1.10;;;15.70;43.70;;;;;;4437963;29;20053;-72
2021/05/06 06:42:51;;;;;;;2.05;1.25;;;16.30;44.30;;;;;;4439074;29;20057;-71
2021/05/06 06:45:08;;;;;;;1.90;0.77;;;16.80;45.10;;;;;;4437529;29;20086;-71
2021/05/06 06:47:25;;;;;;;3.10;0.95;;;;;;;;;;4438985;29;20042;-71
2021/05/06 06:49:42;;;;;;;1.70;1.00;;;15.60;44.80;;;;;;4437424;29;20072;-72
2021/05/06 06:51:58;;;;;;;3.40;1.10;;;16.10;45.10;;;;;;4438881;29;20084;-71
2021/05/06 06:54:13;;;;;;;3.35;1.00;;;15.80;45.30;;;;;;4437588;29;20053;-72
2021/05/06 06:56:29;;;;;;;4.57;0.90;;;;;;;;;;4438203;29;20052;-72
2021/05/06 06:58:49;;;;;;;2.15;1.10;;;14.80;44.70;;;;;;4437518;29;20129;-71
2021/05/06 07:01:05;;;;;;;2.08;1.25;;;16.50;46.50;;;;;;4438242;29;20064;-73
2021/05/06 07:03:22;;;;;;;2.47;1.40;;;15.60;44.40;;;;;;4437894;29;20073;-71
2021/05/06 07:05:38;;;;;;;5.93;1.25;;;16.70;45.30;;;;;;4437924;29;20061;-72
2021/05/06 07:08:11;;;;;;;3.05;1.00;;;15.50;43.70;;;;;;4438072;29;20050;-72
2021/05/06 07:10:27;;;;;;;2.78;1.15;;;15.60;43.80;;;;;;4438033;29;20049;-71
2021/05/06 07:12:43;;;;;;;1.38;1.10;;;15.60;45.00;;;;;;4438183;29;20054;-71
2021/05/06 07:14:58;;;;;;;2.58;1.05;;;14.80;44.20;;;;;;4436286;29;20141;-72
2021/05/06 07:17:16;;;;;;;2.08;1.60;;;15.40;43.70;;;;;;4438426;29;20444;-71
2021/05/06 07:19:36;;;;;;;2.78;1.08;;;;;;;;;;4437091;29;20132;-72
2021/05/06 07:21:52;;;;;;;1.67;1.25;;;16.30;44.40;;;;;;4438377;29;20049;-70
2021/05/06 07:24:10;;;;;;;3.70;1.20;;;15.50;44.40;;;;;;4437413;29;20447;-72
2021/05/06 07:26:31;;;;;;;5.97;1.35;;;14.60;42.70;;;;;;4436784;29;20107;-71
2021/05/06 07:28:50;;;;;;;6.10;0.85;;;16.80;43.80;;;;;;4437447;29;20374;-72
2021/05/06 07:31:09;;;;;;;1.58;1.08;;;16.50;43.70;;;;;;4438331;29;20049;-72
2021/05/06 07:33:29;;;;;;;3.67;1.70;;;17.50;44.30;;;;;;4436189;29;20165;-72
2021/05/06 07:35:47;;;;;;;2.38;1.30;;;15.80;42.40;;;;;;4437434;29;20477;-72
2021/05/06 07:38:05;;;;;;;5.18;0.80;;;18.50;42.00;;;;;;4437084;29;20049;-73
2021/05/06 07:40:23;;;;;;;1.67;0.77;;;16.50;42.40;;;;;;4437638;29;20125;-72
2021/05/06 07:42:43;;;;;;;3.20;1.20;;;15.60;41.80;;;;;;4437761;29;20054;-72
2021/05/06 07:45:01;;;;;;;4.38;2.10;;;16.50;42.80;;;;;;4438050;29;20058;-72
2021/05/06 07:47:20;;;;;;;2.60;0.88;;;15.70;42.90;;;;;;4437824;29;20042;-73
2021/05/06 07:49:38;;;;;;;0.80;0.80;;;16.50;42.60;;;;;;4435915;29;20057;-72
2021/05/06 07:51:57;;;;;;;4.00;1.65;;;16.70;42.10;;;;;;4437849;29;20516;-72
2021/05/06 07:54:15;;;;;;;6.00;1.30;;;17.80;41.30;;;;;;4436748;29;20080;-73
2021/05/06 07:56:34;;;;;;;3.65;0.73;;;17.00;42.10;;;;;;4438068;29;20053;-72
2021/05/06 07:58:51;;;;;;;1.90;1.10;;;15.50;40.80;;;;;;4437008;29;20144;-72
2021/05/06 08:01:06;;;;;;;2.85;0.80;;;15.50;40.50;;;;;;4438010;29;20054;-72
2021/05/06 08:03:22;;;;;;;3.13;0.80;;;;;;;;;;4437290;29;20061;-72
2021/05/06 08:05:39;;;;;;;4.90;1.10;;;18.60;40.70;;;;;;4437741;29;20057;-73
2021/05/06 08:07:55;;;;;;;2.13;1.17;;;19.10;42.10;;;;;;4437118;29;20054;-73
2021/05/06 08:10:18;;;;;;;2.35;1.27;;;15.70;40.80;;;;;;4437458;29;20124;-71
2021/05/06 08:12:33;;;;;;;1.70;1.02;;;17.00;41.80;;;;;;4437297;29;20471;-73
2021/05/06 08:14:52;;;;;;;2.40;0.90;;;;;;;;;;4437290;29;20561;-74
2021/05/06 08:17:08;;;;;;;4.18;0.90;;;15.50;40.80;;;;;;4437510;29;20057;-74
2021/05/06 08:19:26;;;;;;;1.60;1.08;;;17.40;41.00;;;;;;4437496;29;20061;-74
2021/05/06 08:21:47;;;;;;;5.95;1.50;;;18.50;40.70;;;;;;4438499;29;20510;-73
2021/05/06 08:24:05;;;;;;;1.38;1.17;;;15.90;39.80;;;;;;4437873;29;20447;-71
2021/05/06 08:26:25;;;;;;;2.58;1.00;;;18.10;40.20;;;;;;4438644;29;20069;-74
2021/05/06 08:28:42;;;;;;;3.15;1.10;;;16.00;38.80;;;;;;4437267;29;20054;-73
2021/05/06 08:30:58;;;;;;;2.08;0.98;;;16.60;39.00;;;;;;4437705;29;20046;-73
2021/05/06 08:33:15;;;;;;;1.95;0.90;;;16.00;40.70;;;;;;4435916;29;20125;-74
2021/05/06 08:35:32;;;;;;;7.60;1.30;;;15.90;40.20;;;;;;4438361;29;20153;-72
2021/05/06 08:37:51;;;;;;;2.20;1.40;;;;;;;;;;4436970;29;20058;-72
2021/05/06 08:40:09;;;;;;;2.85;1.27;;;15.60;40.70;;;;;;4438168;29;20482;-72
2021/05/06 08:42:26;;;;;;;2.45;1.10;;;19.20;42.80;;;;;;4437833;29;20053;-72
2021/05/06 08:44:45;;;;;;;2.45;1.70;;;16.60;41.20;;;;;;4436481;29;20442;-74
2021/05/06 08:47:05;;;;;;;5.40;2.15;;;;;;;;;;4436801;29;20050;-74
2021/05/06 08:49:21;;;;;;;2.95;1.65;;;15.80;40.80;;;;;;4438087;29;20060;-72
2021/05/06 08:51:39;;;;;;;5.22;1.90;;;15.30;40.80;;;;;;4440218;29;20496;-72
2021/05/06 08:53:54;;;;;;;2.72;1.50;;;15.60;40.30;;;;;;4440260;29;20478;-72
2021/05/06 08:56:11;;;;;;;6.88;2.00;;;;;;;;;;4439374;29;20041;-72
2021/05/06 08:58:27;;;;;;;3.85;1.45;;;17.40;42.10;;;;;;4439553;29;20084;-72
2021/05/06 09:00:43;;;;;;;9.80;1.88;;;15.40;41.80;;;;;;4439452;29;20068;-72
2021/05/06 09:02:58;;;;;;;3.50;1.50;;;15.80;41.80;;;;;;4439381;29;20562;-73
2021/05/06 09:05:15;;;;;;;4.05;1.70;;;16.20;42.40;;;;;;4439000;29;20052;-72
2021/05/06 09:07:31;;;;;;;4.65;2.00;;;17.90;42.60;;;;;;4439057;29;20053;-73
2021/05/06 09:09:49;;;;;;;5.47;1.63;;;15.60;42.30;;;;;;4439706;29;20558;-72
2021/05/06 09:12:07;;;;;;;4.70;2.45;;;15.90;42.80;;;;;;4439002;29;20053;-71
2021/05/06 09:14:35;;;;;;;4.22;1.65;;;;;;;;;;4438698;29;20454;-73
2021/05/06 09:16:51;;;;;;;5.55;1.92;;;16.30;42.60;;;;;;4438670;29;20062;-73
2021/05/06 09:19:08;;;;;;;2.85;1.60;;;16.90;43.00;;;;;;4439692;29;20058;-72
2021/05/06 09:21:29;;;;;;;1.95;1.20;;;15.90;42.80;;;;;;4439205;29;20061;-73
2021/05/06 09:23:45;;;;;;;6.03;1.80;;;15.30;41.80;;;;;;4439095;29;20414;-72
2021/05/06 09:26:06;;;;;;;6.05;1.80;;;15.60;41.30;;;;;;4438730;29;20379;-75
2021/05/06 09:28:23;;;;;;;5.03;2.03;;;16.70;42.90;;;;;;4438952;29;20069;-72
2021/05/06 09:30:50;;;;;;;7.43;1.73;;;17.30;42.70;;;;;;4438518;29;20053;-72
2021/05/06 09:33:10;;;;;;;3.90;1.48;;;15.70;41.70;;;;;;4439597;29;20066;-72
2021/05/06 09:35:29;;;;;;;5.15;1.42;;;15.90;40.50;;;;;;4439653;29;20442;-72
2021/05/06 09:37:49;;;;;;;1.70;0.88;;;16.10;41.80;;;;;;4438760;29;20066;-73
2021/05/06 09:40:09;;;;;;;3.35;1.27;;;15.60;41.60;;;;;;4439802;29;20125;-73
2021/05/06 09:42:37;;;;;;;6.00;1.60;;;16.40;41.00;;;;;;4438534;29;20545;-73
2021/05/06 09:44:57;;;;;;;8.05;2.00;;;17.00;40.20;;;;;;4439432;29;20339;-73
2021/05/06 09:47:16;;;;;;;5.05;1.70;;;16.10;41.20;;;;;;4438625;29;20164;-73
2021/05/06 09:49:39;;;;;;;4.60;1.92;;;19.30;42.80;;;;;;4439565;29;20098;-73
2021/05/06 09:51:58;;;;;;;6.90;2.28;;;18.10;41.70;;;;;;4438535;29;20064;-73
2021/05/06 09:54:15;;;;;;;4.57;1.88;;;;;;;;;;4437413;29;20073;-76
2021/05/06 09:56:31;;;;;;;7.00;3.20;;;15.90;40.90;;;;;;4438525;29;20079;-72
2021/05/06 09:58:47;;;;;;;2.35;1.23;;;;;;;;;;4439007;29;20042;-72
2021/05/06 10:01:11;;;;;;;6.55;3.00;;;18.20;41.00;;;;;;4437087;29;20077;-71
2021/05/06 10:03:30;;;;;;;;;;;16.10;40.00;;;;;;4439176;29;20061;-72
2021/05/06 10:05:47;;;;;;;1.58;1.08;;;19.50;42.50;;;;;;4438819;29;19939;-72
2021/05/06 10:08:04;;;;;;;2.25;1.10;;;16.10;39.40;;;;;;4438692;29;20134;-72
2021/05/06 10:10:23;;;;;;;6.45;2.30;;;16.70;40.80;;;;;;4438901;29;20085;-72
2021/05/06 10:12:40;;;;;;;1.38;0.95;;;16.70;40.30;;;;;;4438231;29;20064;-73
2021/05/06 10:14:57;;;;;;;3.53;1.00;;;16.20;39.50;;;;;;4438494;29;20050;-73
2021/05/06 10:17:15;;;;;;;1.98;1.30;;;;;;;;;;4437397;29;20053;-74
2021/05/06 10:19:32;;;;;;;3.28;1.17;;;18.30;40.80;;;;;;4438755;29;20053;-73
2021/05/06 10:21:49;;;;;;;3.60;1.10;;;16.20;38.40;;;;;;4437838;29;20053;-73
2021/05/06 10:24:05;;;;;;;2.50;1.42;;;15.80;39.60;;;;;;4438791;29;20231;-73
2021/05/06 10:26:21;;;;;;;3.05;1.17;;;16.40;39.50;;;;;;4435843;29;20073;-80
2021/05/06 10:28:38;;;;;;;3.20;1.50;;;;;;;;;;4436752;29;20080;-80
2021/05/06 10:30:55;;;;;;;3.50;1.70;;;;;;;;;;4425870;29;20121;-81
2021/05/06 10:33:12;;;;;;;2.45;1.20;;;;;;;;;;4439523;29;20050;-81
2021/05/06 10:35:29;;;;;;;4.68;1.67;;;15.30;40.30;;;;;;4439489;29;20483;-78
2021/05/06 10:37:51;;;;;;;2.92;1.05;;;15.90;41.10;;;;;;4437945;29;20632;-80
2021/05/06 10:40:30;;;;;;;5.57;1.90;;;15.50;40.30;;;;;;4438375;29;20049;-79
2021/05/06 10:42:47;;;;;;;4.13;1.55;;;17.90;41.70;;;;;;4438263;29;20518;-77
2021/05/06 10:45:30;;;;;;;4.55;1.67;;;17.50;42.20;;;;;;4437831;29;20563;-77
2021/05/06 10:47:54;;;;;;;5.05;1.48;;;16.30;40.60;;;;;;4435616;29;20057;-79
2021/05/06 10:50:13;;;;;;;3.60;1.50;;;14.60;41.20;;;;;;4438763;29;20458;-77
2021/05/06 10:52:37;;;;;;;2.85;1.67;;;;;;;;;;4438160;29;20057;-78
2021/05/06 10:54:53;;;;;;;4.25;1.50;;;;;;;;;;4438299;29;20061;-76
2021/05/06 10:57:31;;;;;;;3.05;1.20;;;16.70;41.10;;;;;;4438034;29;20572;-80
2021/05/06 10:59:47;;;;;;;3.97;1.42;;;15.40;40.80;;;;;;4438356;29;20073;-80
2021/05/06 11:02:04;;;;;;;1.90;1.30;;;;;;;;;;4438461;29;20046;-76
2021/05/06 11:04:33;;;;;;;1.55;1.40;;;14.90;41.60;;;;;;4438690;29;20686;-82
2021/05/06 11:06:50;;;;;;;3.92;1.40;;;18.00;43.10;;;;;;4437353;29;20050;-82
2021/05/06 11:09:42;;;;;;;4.38;2.10;;;17.90;42.80;;;;;;4437519;29;20054;-80
2021/05/06 11:12:18;;;;;;;7.72;1.90;;;;;;;;;;4438017;29;20157;-82
2021/05/06 11:15:29;;;;;;;2.88;1.40;;;16.90;41.70;;;;;;4436594;29;20126;-80
2021/05/06 11:17:46;;;;;;;4.97;1.67;;;;;;;;;;4437188;29;20053;-76
2021/05/06 11:20:03;;;;;;;2.13;1.50;;;16.50;42.50;;;;;;4437812;29;20077;-77
2021/05/06 11:22:34;;;;;;;2.10;1.10;;;;;;;;;;4421179;29;20081;-77
2021/05/06 11:24:51;;;;;;;3.60;1.52;;;;;;;;;;4438004;29;20530;-80
2021/05/06 11:27:12;;;;;;;3.45;1.40;;;15.80;41.50;;;;;;4436040;29;20046;-76
2021/05/06 11:29:29;;;;;;;3.65;1.50;;;17.40;43.70;;;;;;4435892;29;20403;-76
2021/05/06 11:31:48;;;;;;;2.15;1.35;;;16.80;43.30;;;;;;4436898;29;20517;-79
2021/05/06 11:34:31;;;;;;;3.67;1.52;;;16.80;42.60;;;;;;4438333;29;20054;-78
2021/05/06 11:36:47;;;;;;;3.22;1.30;;;16.80;43.40;;;;;;4430090;29;20070;-76
2021/05/06 11:39:03;;;;;;;7.13;3.00;;;16.90;43.20;;;;;;4437321;29;20790;-77
2021/05/06 11:41:24;;;;;;;2.60;1.50;;;;;;;;;;4437192;29;20054;-75
2021/05/06 11:43:44;;;;;;;2.17;1.10;;;;;;;;;;4437126;29;20073;-75
2021/05/06 11:46:06;;;;;;;3.40;1.23;;;18.50;42.20;;;;;;4437822;29;20057;-74
2021/05/06 11:48:33;;;;;;;3.17;1.30;;;;;;;;;;4435623;29;20058;-77
2021/05/06 11:50:50;;;;;;;3.75;1.60;;;;;;;;;;4437786;29;20058;-79
2021/05/06 11:55:45;;;;;;;3.90;1.70;;;17.50;41.50;;;;;;4434358;29;20049;-77
2021/05/06 11:58:02;;;;;;;1.40;1.10;;;;;;;;;;4436406;29;20062;-78
2021/05/06 12:00:18;;;;;;;2.20;1.50;;;17.20;40.30;;;;;;4437433;29;20050;-83
2021/05/06 12:02:34;;;;;;;1.55;1.20;;;;;;;;;;4439114;29;20050;-87
2021/05/06 12:04:52;;;;;;;2.92;1.08;;;;;;;;;;4438947;29;20054;-77
2021/05/06 12:07:14;;;;;;;1.77;1.08;;;18.50;39.00;;;;;;4435548;29;20053;-79
2021/05/06 12:09:35;;;;;;;3.60;1.40;;;;;;;;;;4437576;29;20530;-76
2021/05/06 12:11:54;;;;;;;1.77;1.30;;;18.50;40.30;;;;;;4437937;29;20153;-76
2021/05/06 12:14:11;;;;;;;3.13;1.35;;;17.10;39.80;;;;;;4435566;29;20062;-76
2021/05/06 12:16:27;;;;;;;3.70;1.70;;;16.50;40.20;;;;;;4438195;29;20054;-79
2021/05/06 12:18:53;;;;;;;2.30;1.50;;;18.40;41.90;;;;;;4437172;29;20050;-78
2021/05/06 12:21:10;;;;;;;3.92;1.80;;;17.70;40.80;;;;;;4437128;29;20053;-77
2021/05/06 12:23:29;;;;;;;3.53;1.80;;;;;;;;;;4438375;29;20046;-79
2021/05/06 12:25:46;;;;;;;3.25;1.30;;;17.40;42.40;;;;;;4441752;29;20470;-79
2021/05/06 12:28:02;;;;;;;4.93;1.80;;;;;;;;;;4439971;29;20133;-80
2021/05/06 12:30:27;;;;;;;4.10;2.00;;;17.20;42.30;;;;;;4441686;29;20557;-79
2021/05/06 12:32:46;;;;;;;4.85;1.75;;;17.20;42.80;;;;;;4440514;29;20482;-78
2021/05/06 12:35:03;;;;;;;2.70;1.75;;;17.00;42.90;;;;;;4441361;29;20054;-77
2021/05/06 12:37:23;;;;;;;4.32;2.17;;;17.00;43.00;;;;;;4423383;29;20066;-78
2021/05/06 12:39:40;;;;;;;3.10;1.77;;;17.00;43.90;;;;;;4440795;29;20058;-78
2021/05/06 12:41:58;;;;;;;5.03;1.80;;;16.10;43.90;;;;;;4440642;29;20050;-78
2021/05/06 12:44:14;;;;;;;2.25;1.63;;;16.40;44.40;;;;;;4439422;29;20085;-78
2021/05/06 12:46:31;;;;;;;2.60;1.70;;;17.50;44.30;;;;;;4440829;29;20050;-76
2021/05/06 12:48:56;;;;;;;4.10;1.80;;;16.90;42.60;;;;;;4441300;29;20500;-76
2021/05/06 12:51:15;;;;;;;3.40;1.75;;;16.90;42.70;;;;;;4441534;29;20082;-75
2021/05/06 12:53:31;;;;;;;5.03;1.95;;;;;;;;;;4440629;29;20600;-78
2021/05/06 12:55:48;;;;;;;3.53;1.80;;;17.50;42.40;;;;;;4441127;29;20061;-77
2021/05/06 12:58:06;;;;;;;2.50;1.70;;;20.10;44.40;;;;;;4439329;29;20052;-78
2021/05/06 13:00:24;;;;;;;3.30;1.60;;;17.60;43.00;;;;;;4439305;29;20065;-77
2021/05/06 13:02:41;;;;;;;5.00;1.70;;;16.80;42.40;;;;;;4438454;29;20046;-77
2021/05/06 13:04:57;;;;;;;5.20;1.80;;;16.70;42.50;;;;;;4440681;29;20137;-82
2021/05/06 13:07:13;;;;;;;8.75;1.80;;;;;;;;;;4438839;29;20046;-79
2021/05/06 13:09:40;;;;;;;3.35;1.75;;;17.60;42.20;;;;;;4439997;29;20053;-79
2021/05/06 13:12:10;;;;;;;5.28;2.30;;;;;;;;;;4438551;29;20058;-77
2021/05/06 13:14:26;;;;;;;4.10;1.92;;;17.50;42.50;;;;;;4439233;29;20053;-77
2021/05/06 13:16:45;;;;;;;3.67;1.80;;;18.70;44.40;;;;;;4437936;29;20447;-75
2021/05/06 13:19:04;;;;;;;8.20;1.73;;;;;;;;;;4438823;29;20057;-77
2021/05/06 13:21:23;;;;;;;3.00;1.60;;;17.10;43.80;;;;;;4438035;29;20124;-76
2021/05/06 13:23:41;;;;;;;3.80;1.70;;;17.40;43.50;;;;;;4439208;29;20046;-76
2021/05/06 13:25:59;;;;;;;2.35;1.63;;;16.90;42.90;;;;;;4439886;29;20060;-76
2021/05/06 13:28:17;;;;;;;2.97;1.50;;;;;;;;;;4438904;29;20062;-76
2021/05/06 13:30:33;;;;;;;4.20;1.65;;;16.10;43.40;;;;;;4439829;29;20042;-77
2021/05/06 13:32:49;;;;;;;2.58;1.55;;;;;;;;;;4439262;29;20412;-76
2021/05/06 13:35:15;;;;;;;4.10;1.60;;;16.40;42.70;;;;;;4439854;29;20509;-76
2021/05/06 13:37:35;;;;;;;5.88;2.10;;;;;;;;;;4436647;29;20482;-77
2021/05/06 13:39:51;;;;;;;1.95;1.55;;;16.80;42.70;;;;;;4437192;29;20505;-75
2021/05/06 13:42:07;;;;;;;5.40;1.67;;;17.30;42.50;;;;;;4436043;29;20058;-77
2021/05/06 13:44:25;;;;;;;5.18;2.63;;;16.30;42.80;;;;;;4439601;29;20057;-77
2021/05/06 13:46:46;;;;;;;5.53;1.88;;;16.70;41.80;;;;;;4439199;29;20053;-74
2021/05/06 13:49:02;;;;;;;4.95;1.60;;;;;;;;;;4439683;29;20057;-74
2021/05/06 13:51:20;;;;;;;3.60;1.65;;;17.30;42.60;;;;;;4439018;29;20187;-75
2021/05/06 13:53:37;;;;;;;2.53;1.52;;;18.20;41.90;;;;;;4439056;29;20050;-76
2021/05/06 13:55:52;;;;;;;6.25;2.88;;;18.20;43.20;;;;;;4439441;29;20502;-75
2021/05/06 13:58:08;;;;;;;3.58;1.60;;;;;;;;;;4439123;29;20042;-73
2021/05/06 14:00:24;;;;;;;2.63;1.55;;;17.90;43.00;;;;;;4439219;29;20042;-74
2021/05/06 14:02:43;;;;;;;2.72;1.60;;;16.20;41.80;;;;;;4437330;29;20077;-73
2021/05/06 14:04:59;;;;;;;6.50;3.05;;;;;;;;;;4436996;29;20054;-74
2021/05/06 14:07:15;;;;;;;2.88;1.80;;;17.20;42.80;;;;;;4437813;29;20092;-75
2021/05/06 14:09:31;;;;;;;2.58;1.17;;;;;;;;;;4438071;29;20175;-75
2021/05/06 14:11:48;;;;;;;3.50;1.48;;;16.30;42.60;;;;;;4438178;29;20058;-74
2021/05/06 14:14:05;;;;;;;2.53;1.50;;;19.20;44.20;;;;;;4438878;29;20102;-75
2021/05/06 14:16:20;;;;;;;2.58;1.50;;;17.40;43.30;;;;;;4437189;29;20074;-75
2021/05/06 14:18:36;;;;;;;3.10;1.67;;;;;;;;;;4438924;29;20053;-76
2021/05/06 14:20:53;;;;;;;2.95;1.45;;;;;;;;;;4437713;29;20081;-74
2021/05/06 14:23:11;;;;;;;4.82;1.50;;;;;;;;;;4438357;29;20092;-74
2021/05/06 14:25:27;;;;;;;4.22;1.42;;;16.80;41.60;;;;;;4438013;29;20069;-74
2021/05/06 14:27:43;;;;;;;3.22;2.15;;;16.70;42.20;;;;;;4439091;29;20066;-75
2021/05/06 14:29:58;;;;;;;2.35;1.35;;;17.20;41.80;;;;;;4437917;29;20111;-74
2021/05/06 14:32:14;;;;;;;4.30;2.00;;;17.30;41.20;;;;;;4436951;29;20062;-75
2021/05/06 14:34:30;;;;;;;4.22;1.70;;;17.30;41.20;;;;;;4437409;29;20054;-74
2021/05/06 14:36:46;;;;;;;6.32;1.70;;;17.20;42.00;;;;;;4437256;29;20130;-73
2021/05/06 14:39:03;;;;;;;4.40;1.70;;;17.50;41.50;;;;;;4437550;29;20379;-73
2021/05/06 14:41:19;;;;;;;4.32;1.50;;;16.00;41.60;;;;;;4436089;29;20046;-75
2021/05/06 14:43:36;;;;;;;2.80;1.50;;;16.20;41.90;;;;;;4437639;29;20046;-73
2021/05/06 14:45:54;;;;;;;6.78;1.50;;;16.30;41.90;;;;;;4435798;29;20177;-75